createdAt,value
2023-02-13T00:00:32.426Z,7.00
2023-02-13T00:02:59.204Z,7.10
2023-02-13T00:05:25.870Z,7.00
2023-02-13T00:07:52.539Z,7.00
2023-02-13T00:10:19.351Z,7.10
2023-02-13T00:12:46.020Z,7.10
2023-02-13T00:15:12.792Z,7.10
2023-02-13T00:17:39.773Z,7.10
2023-02-13T00:20:07.394Z,7.20
2023-02-13T00:22:38.082Z,7.10
2023-02-13T00:25:06.443Z,7.20
2023-02-13T00:27:33.474Z,7.20
2023-02-13T00:30:00.250Z,9.20
2023-02-13T00:32:26.973Z,7.10
2023-02-13T00:34:53.869Z,7.10
2023-02-13T00:37:20.559Z,8.30
2023-02-13T00:39:47.226Z,7.20
2023-02-13T00:42:13.924Z,7.20
2023-02-13T00:44:40.591Z,7.20
2023-02-13T00:47:07.464Z,7.20
2023-02-13T00:49:34.155Z,7.20
2023-02-13T00:52:00.921Z,7.20
2023-02-13T00:54:27.683Z,7.20
2023-02-13T00:56:54.391Z,7.10
2023-02-13T00:59:21.243Z,7.30
2023-02-13T01:01:47.971Z,7.10
2023-02-13T01:04:14.672Z,7.10
2023-02-13T01:06:41.627Z,7.10
2023-02-13T01:09:08.385Z,7.10
2023-02-13T01:11:35.106Z,7.10
2023-02-13T01:14:01.801Z,7.10
2023-02-13T01:16:28.508Z,7.00
2023-02-13T01:18:55.200Z,7.10
2023-02-13T01:21:23.774Z,6.20
2023-02-13T01:23:51.596Z,8.00
2023-02-13T01:26:23.879Z,7.10
2023-02-13T01:28:54.727Z,7.10
2023-02-13T01:31:22.137Z,7.10
2023-02-13T01:33:48.915Z,7.00
2023-02-13T01:36:15.844Z,7.10
2023-02-13T01:38:43.050Z,7.10
2023-02-13T01:41:10.643Z,7.10
2023-02-13T01:44:25.048Z,7.00
2023-02-13T01:46:51.794Z,7.00
2023-02-13T01:49:26.318Z,7.00
2023-02-13T01:51:56.179Z,7.10
2023-02-13T01:54:31.369Z,7.00
2023-02-13T01:57:02.978Z,7.00
2023-02-13T01:59:32.487Z,7.00
2023-02-13T02:02:00.736Z,6.90
2023-02-13T02:04:32.487Z,6.90
2023-02-13T02:07:06.615Z,6.80
2023-02-13T02:09:39.494Z,8.60
2023-02-13T02:12:12.271Z,6.70
2023-02-13T02:14:41.275Z,6.70
2023-02-13T02:17:08.360Z,6.60
2023-02-13T02:19:55.945Z,6.60
2023-02-13T02:22:28.591Z,6.50
2023-02-13T02:25:04.138Z,6.50
2023-02-13T02:27:36.627Z,6.50
2023-02-13T02:30:40.320Z,6.40
2023-02-13T02:33:30.738Z,6.40
2023-02-13T02:36:25.136Z,6.30
2023-02-13T02:39:31.418Z,6.30
2023-02-13T02:42:10.607Z,6.30
2023-02-13T02:44:58.025Z,6.30
2023-02-13T02:47:49.777Z,6.20
2023-02-13T02:50:37.860Z,6.20
2023-02-13T02:53:22.760Z,6.20
2023-02-13T02:56:00.247Z,6.20
2023-02-13T02:59:08.999Z,6.20
2023-02-13T03:01:56.748Z,6.20
2023-02-13T03:04:45.169Z,6.20
2023-02-13T03:07:16.029Z,6.20
2023-02-13T03:10:12.098Z,6.20
2023-02-13T03:13:03.816Z,6.20
2023-02-13T03:15:31.191Z,6.20
2023-02-13T03:18:17.312Z,7.00
2023-02-13T03:21:23.817Z,6.10
2023-02-13T03:24:09.316Z,6.10
2023-02-13T03:26:50.594Z,6.10
2023-02-13T03:30:02.344Z,6.10
2023-02-13T03:32:50.075Z,6.10
2023-02-13T03:35:54.311Z,6.10
2023-02-13T03:38:31.700Z,6.10
2023-02-13T03:41:24.603Z,6.10
2023-02-13T03:44:03.081Z,7.10
2023-02-13T03:46:34.960Z,6.10
2023-02-13T03:49:23.276Z,6.10
2023-02-13T03:52:02.983Z,6.10
2023-02-13T03:55:09.750Z,6.10
2023-02-13T03:57:57.367Z,6.10
2023-02-13T04:00:28.587Z,6.20
2023-02-13T04:03:08.318Z,6.10
2023-02-13T04:05:42.068Z,6.10
2023-02-13T04:08:08.865Z,6.60
2023-02-13T04:10:42.329Z,6.20
2023-02-13T04:13:13.289Z,6.20
2023-02-13T04:16:13.806Z,6.20
2023-02-13T04:18:41.247Z,6.10
2023-02-13T04:21:08.177Z,6.10
2023-02-13T04:23:36.884Z,6.10
2023-02-13T04:26:07.537Z,6.10
2023-02-13T04:28:34.488Z,6.10
2023-02-13T04:31:01.917Z,6.10
2023-02-13T04:33:28.965Z,6.10
2023-02-13T04:35:56.844Z,6.10
2023-02-13T04:38:23.749Z,6.10
2023-02-13T04:40:50.455Z,6.10
2023-02-13T04:43:17.162Z,6.10
2023-02-13T04:45:43.914Z,6.10
2023-02-13T04:48:10.636Z,6.10
2023-02-13T04:50:37.333Z,6.00
2023-02-13T04:53:04.002Z,6.00
2023-02-13T04:55:30.818Z,6.00
2023-02-13T04:57:57.966Z,6.00
2023-02-13T05:00:26.931Z,6.00
2023-02-13T05:02:54.207Z,6.00
2023-02-13T05:05:21.368Z,5.90
2023-02-13T05:07:48.284Z,5.90
2023-02-13T05:10:15.003Z,5.90
2023-02-13T05:12:41.664Z,5.90
2023-02-13T05:15:08.998Z,5.90
2023-02-13T05:17:35.708Z,5.90
2023-02-13T05:20:02.608Z,5.80
2023-02-13T05:22:48.001Z,5.80
2023-02-13T05:25:14.875Z,5.80
2023-02-13T05:27:41.642Z,5.80
2023-02-13T05:30:08.792Z,5.80
2023-02-13T05:32:35.555Z,5.70
2023-02-13T05:35:04.421Z,5.70
2023-02-13T05:37:31.532Z,7.00
2023-02-13T05:39:58.197Z,5.70
2023-02-13T05:42:24.908Z,5.60
2023-02-13T05:44:51.590Z,5.60
2023-02-13T05:47:18.295Z,5.60
2023-02-13T05:49:44.986Z,5.60
2023-02-13T05:52:11.783Z,5.60
2023-02-13T05:54:39.452Z,5.50
2023-02-13T05:57:06.312Z,5.60
2023-02-13T05:59:33.071Z,5.50
2023-02-13T06:01:59.758Z,5.50
2023-02-13T06:04:26.586Z,5.50
2023-02-13T06:06:53.315Z,5.50
2023-02-13T06:09:20.158Z,5.40
2023-02-13T06:11:46.813Z,5.40
2023-02-13T06:14:14.619Z,5.40
2023-02-13T06:16:41.567Z,5.40
2023-02-13T06:19:08.607Z,5.40
2023-02-13T06:21:38.094Z,5.40
2023-02-13T06:24:08.661Z,7.20
2023-02-13T06:26:35.664Z,6.60
2023-02-13T06:29:02.396Z,5.30
2023-02-13T06:31:29.150Z,7.20
2023-02-13T06:33:56.057Z,5.30
2023-02-13T06:36:22.751Z,5.20
2023-02-13T06:38:49.497Z,5.20
2023-02-13T06:41:16.159Z,5.20
2023-02-13T06:43:42.818Z,5.20
2023-02-13T06:46:09.772Z,5.20
2023-02-13T06:48:36.615Z,5.20
2023-02-13T06:51:03.436Z,5.20
2023-02-13T06:53:30.397Z,5.20
2023-02-13T06:55:57.298Z,5.20
2023-02-13T06:58:25.611Z,5.20
2023-02-13T07:00:53.093Z,5.20
2023-02-13T07:03:19.810Z,5.20
2023-02-13T07:05:46.593Z,5.20
2023-02-13T07:08:13.650Z,5.20
2023-02-13T07:10:41.741Z,5.20
2023-02-13T07:13:08.963Z,5.30
2023-02-13T07:15:36.755Z,5.30
2023-02-13T07:18:04.250Z,5.30
2023-02-13T07:20:31.027Z,5.30
2023-02-13T07:23:02.016Z,5.30
2023-02-13T07:25:29.708Z,5.30
2023-02-13T07:28:01.585Z,5.30
2023-02-13T07:30:28.492Z,5.30
2023-02-13T07:33:02.125Z,6.90
2023-02-13T07:35:28.878Z,5.30
2023-02-13T07:37:56.287Z,5.30
2023-02-13T07:40:23.331Z,5.30
2023-02-13T07:42:50.017Z,5.40
2023-02-13T07:45:16.880Z,5.40
2023-02-13T07:47:43.720Z,5.40
2023-02-13T07:50:11.194Z,5.40
2023-02-13T07:52:38.208Z,5.40
2023-02-13T07:55:05.633Z,5.40
2023-02-13T07:57:32.388Z,5.50
2023-02-13T07:59:59.052Z,5.50
2023-02-13T08:02:25.963Z,5.50
2023-02-13T08:04:53.390Z,5.60
2023-02-13T08:07:20.503Z,5.60
2023-02-13T08:10:06.230Z,5.70
2023-02-13T08:12:35.873Z,5.70
2023-02-13T08:15:03.360Z,5.70
2023-02-13T08:17:30.144Z,6.90
2023-02-13T08:19:57.152Z,5.80
2023-02-13T08:22:24.467Z,5.90
2023-02-13T08:24:51.281Z,5.90
2023-02-13T08:27:18.827Z,6.00
2023-02-13T08:29:45.684Z,6.10
2023-02-13T08:32:12.561Z,7.90
2023-02-13T08:34:39.381Z,6.10
2023-02-13T08:37:07.288Z,6.20
2023-02-13T08:39:34.372Z,6.20
2023-02-13T08:42:01.069Z,6.30
2023-02-13T08:44:27.997Z,6.30
2023-02-13T08:46:54.897Z,6.30
2023-02-13T08:49:22.208Z,6.40
2023-02-13T08:51:49.934Z,6.40
2023-02-13T08:54:16.758Z,6.50
2023-02-13T08:56:43.972Z,6.50
2023-02-13T08:59:11.011Z,6.60
2023-02-13T09:01:38.671Z,6.60
2023-02-13T09:04:05.650Z,6.60
2023-02-13T09:06:32.639Z,6.70
2023-02-13T09:09:00.011Z,6.70
2023-02-13T09:11:27.274Z,7.30
2023-02-13T09:13:54.679Z,6.80
2023-02-13T09:16:21.842Z,6.80
2023-02-13T09:18:50.129Z,9.00
2023-02-13T09:21:18.602Z,7.00
2023-02-13T09:23:46.013Z,7.00
2023-02-13T09:26:15.865Z,7.00
2023-02-13T09:28:43.814Z,7.10
2023-02-13T09:31:17.731Z,7.10
2023-02-13T09:33:46.588Z,7.20
2023-02-13T09:36:16.723Z,9.30
2023-02-13T09:38:44.366Z,7.20
2023-02-13T09:41:19.907Z,7.40
2023-02-13T09:43:51.327Z,7.30
2023-02-13T09:46:23.920Z,7.40
2023-02-13T09:48:54.961Z,7.50
2023-02-13T09:51:26.191Z,7.50
2023-02-13T09:54:00.453Z,7.60
2023-02-13T09:57:03.100Z,9.50
2023-02-13T09:59:57.097Z,8.30
2023-02-13T10:02:41.831Z,7.80
2023-02-13T10:05:23.737Z,7.90
2023-02-13T10:08:13.905Z,7.90
2023-02-13T10:11:11.399Z,8.00
2023-02-13T10:13:50.236Z,8.10
2023-02-13T10:16:21.089Z,8.20
2023-02-13T10:18:55.691Z,8.20
2023-02-13T10:21:28.281Z,8.40
2023-02-13T10:24:10.428Z,8.40
2023-02-13T10:26:43.171Z,8.50
2023-02-13T10:29:41.595Z,8.60
2023-02-13T10:32:15.942Z,8.70
2023-02-13T10:34:47.362Z,8.70
2023-02-13T10:37:18.039Z,8.80
2023-02-13T10:39:47.674Z,8.90
2023-02-13T10:42:24.930Z,10.60
2023-02-13T10:45:19.094Z,9.00
2023-02-13T10:47:55.792Z,9.10
2023-02-13T10:50:40.024Z,9.20
2023-02-13T10:53:23.551Z,9.20
2023-02-13T10:56:18.315Z,9.20
2023-02-13T10:59:06.859Z,9.30
2023-02-13T11:01:55.784Z,9.30
2023-02-13T11:04:23.436Z,11.10
2023-02-13T11:06:58.271Z,9.50
2023-02-13T11:09:25.446Z,9.60
2023-02-13T11:11:52.705Z,9.60
2023-02-13T11:14:24.752Z,9.70
2023-02-13T11:17:06.814Z,9.80
2023-02-13T11:19:35.544Z,9.90
2023-02-13T11:22:04.698Z,9.90
2023-02-13T11:24:32.700Z,10.00
2023-02-13T11:27:09.436Z,11.60
2023-02-13T11:29:50.515Z,10.10
2023-02-13T11:32:19.266Z,10.10
2023-02-13T11:34:46.457Z,10.20
2023-02-13T11:37:13.152Z,10.30
2023-02-13T11:39:43.935Z,10.30
2023-02-13T11:42:35.596Z,10.30
2023-02-13T11:45:03.910Z,10.30
2023-02-13T11:47:42.197Z,11.60
2023-02-13T11:50:35.067Z,10.40
2023-02-13T11:53:09.188Z,10.50
2023-02-13T11:55:42.603Z,10.60
2023-02-13T11:58:12.368Z,10.60
2023-02-13T12:00:41.568Z,10.70
2023-02-13T12:03:30.872Z,10.70
2023-02-13T12:06:14.104Z,10.70
2023-02-13T12:08:44.170Z,10.80
2023-02-13T12:11:32.326Z,10.80
2023-02-13T12:14:00.120Z,10.90
2023-02-13T12:16:45.056Z,10.90
2023-02-13T12:19:20.015Z,10.90
2023-02-13T12:22:29.018Z,12.50
2023-02-13T12:25:28.384Z,10.90
2023-02-13T12:28:10.399Z,10.90
2023-02-13T12:30:43.358Z,10.80
2023-02-13T12:33:40.471Z,10.80
2023-02-13T12:36:26.725Z,10.70
2023-02-13T12:39:17.291Z,10.70
2023-02-13T12:42:10.898Z,10.70
2023-02-13T12:44:41.449Z,10.70
2023-02-13T12:47:16.607Z,10.70
2023-02-13T12:50:00.467Z,10.60
2023-02-13T12:52:42.862Z,10.60
2023-02-13T12:55:21.390Z,10.50
2023-02-13T12:58:03.283Z,10.50
2023-02-13T13:00:38.840Z,10.40
2023-02-13T13:03:11.201Z,10.40
2023-02-13T13:06:09.129Z,10.40
2023-02-13T13:09:14.955Z,11.30
2023-02-13T13:11:51.028Z,10.30
2023-02-13T13:15:02.977Z,10.20
2023-02-13T13:17:52.664Z,10.20
2023-02-13T13:20:57.256Z,10.20
2023-02-13T13:23:51.682Z,10.20
2023-02-13T13:26:21.684Z,10.20
2023-02-13T13:28:52.604Z,10.20
2023-02-13T13:31:20.890Z,10.20
2023-02-13T13:33:48.392Z,11.90
2023-02-13T13:36:20.896Z,10.10
2023-02-13T13:39:01.910Z,11.60
2023-02-13T13:41:47.850Z,10.20
2023-02-13T13:44:37.178Z,10.20
2023-02-13T13:47:35.040Z,10.20
2023-02-13T13:50:05.614Z,10.10
2023-02-13T13:52:35.109Z,10.10
2023-02-13T13:55:04.522Z,10.20
2023-02-13T13:57:34.260Z,10.60
2023-02-13T14:00:12.692Z,10.00
2023-02-13T14:02:59.220Z,9.90
2023-02-13T14:05:30.617Z,10.90
2023-02-13T14:08:04.139Z,9.80
2023-02-13T14:10:30.825Z,9.70
2023-02-13T14:12:57.504Z,9.70
2023-02-13T14:15:44.826Z,9.60
2023-02-13T14:18:14.446Z,9.60
2023-02-13T14:20:53.045Z,9.60
2023-02-13T14:23:22.509Z,11.10
2023-02-13T14:25:49.449Z,9.50
2023-02-13T14:28:34.266Z,9.50
2023-02-13T14:31:18.001Z,9.90
2023-02-13T14:33:44.966Z,9.50
2023-02-13T14:36:23.394Z,9.40
2023-02-13T14:38:58.662Z,10.20
2023-02-13T14:41:47.965Z,9.30
2023-02-13T14:44:55.573Z,9.20
2023-02-13T14:47:30.410Z,8.70
2023-02-13T14:49:59.616Z,9.10
2023-02-13T14:52:34.254Z,9.10
2023-02-13T14:55:17.390Z,9.00
2023-02-13T14:57:49.255Z,9.00
2023-02-13T15:00:39.132Z,8.90
2023-02-13T15:03:37.187Z,8.90
2023-02-13T15:06:12.984Z,8.80
2023-02-13T15:08:49.259Z,8.70
2023-02-13T15:11:37.072Z,8.70
2023-02-13T15:14:35.616Z,8.60
2023-02-13T15:17:08.583Z,8.60
2023-02-13T15:19:39.392Z,8.50
2023-02-13T15:22:07.319Z,8.40
2023-02-13T15:24:44.915Z,8.40
2023-02-13T15:27:28.869Z,8.30
2023-02-13T15:29:55.658Z,8.10
2023-02-13T15:32:32.037Z,8.10
2023-02-13T15:34:59.120Z,8.00
2023-02-13T15:37:30.421Z,7.90
2023-02-13T15:40:36.431Z,7.90
2023-02-13T15:43:03.442Z,7.80
2023-02-13T15:45:30.841Z,7.70
2023-02-13T15:47:58.092Z,7.60
2023-02-13T15:50:36.160Z,9.50
2023-02-13T15:53:10.125Z,7.50
2023-02-13T15:55:38.640Z,7.40
2023-02-13T15:58:05.694Z,7.40
2023-02-13T16:00:39.665Z,7.40
2023-02-13T16:03:13.922Z,7.20
2023-02-13T16:05:41.724Z,7.10
2023-02-13T16:08:29.396Z,7.10
2023-02-13T16:11:18.183Z,7.00
2023-02-13T16:14:17.963Z,6.90
2023-02-13T16:16:56.561Z,6.90
2023-02-13T16:19:42.743Z,6.90
2023-02-13T16:22:32.932Z,6.80
2023-02-13T16:25:25.637Z,6.70
2023-02-13T16:28:01.749Z,6.60
2023-02-13T16:30:36.296Z,6.60
2023-02-13T16:33:15.125Z,6.50
2023-02-13T16:35:44.202Z,6.50
2023-02-13T16:38:31.494Z,6.50
2023-02-13T16:41:02.210Z,6.40
2023-02-13T16:43:53.820Z,6.40
2023-02-13T16:46:42.255Z,6.30
2023-02-13T16:49:09.333Z,6.30
2023-02-13T16:51:43.793Z,6.20
2023-02-13T16:54:24.972Z,6.20
2023-02-13T16:57:05.365Z,6.10
2023-02-13T16:59:49.556Z,6.10
2023-02-13T17:02:32.038Z,6.00
2023-02-13T17:05:08.090Z,6.00
2023-02-13T17:07:41.643Z,5.90
2023-02-13T17:10:38.088Z,5.90
2023-02-13T17:13:13.606Z,5.90
2023-02-13T17:15:45.601Z,6.80
2023-02-13T17:18:12.372Z,5.80
2023-02-13T17:20:43.654Z,5.80
2023-02-13T17:23:22.183Z,5.80
2023-02-13T17:25:50.396Z,5.70
2023-02-13T17:28:21.030Z,5.70
2023-02-13T17:30:50.101Z,5.70
2023-02-13T17:33:34.686Z,5.70
2023-02-13T17:36:01.388Z,5.60
2023-02-13T17:38:28.219Z,7.60
2023-02-13T17:40:54.965Z,5.60
2023-02-13T17:43:21.988Z,5.50
2023-02-13T17:45:50.008Z,5.60
2023-02-13T17:48:17.540Z,5.70
2023-02-13T17:50:44.633Z,5.70
2023-02-13T17:53:24.897Z,5.80
2023-02-13T17:55:52.120Z,5.90
2023-02-13T17:58:18.955Z,6.00
2023-02-13T18:00:45.706Z,6.00
2023-02-13T18:03:12.896Z,6.00
2023-02-13T18:05:39.817Z,6.10
2023-02-13T18:08:07.042Z,6.10
2023-02-13T18:10:35.883Z,6.10
2023-02-13T18:13:06.585Z,6.10
2023-02-13T18:15:41.302Z,6.10
2023-02-13T18:18:08.342Z,6.20
2023-02-13T18:20:35.273Z,6.20
2023-02-13T18:23:02.033Z,6.20
2023-02-13T18:25:29.220Z,6.20
2023-02-13T18:27:56.245Z,6.30
2023-02-13T18:30:23.290Z,6.30
2023-02-13T18:32:55.030Z,6.30
2023-02-13T18:35:22.702Z,6.30
2023-02-13T18:37:49.625Z,6.30
2023-02-13T18:40:17.945Z,6.40
2023-02-13T18:42:45.226Z,6.40
2023-02-13T18:45:12.424Z,6.40
2023-02-13T18:47:39.545Z,6.40
2023-02-13T18:50:06.999Z,6.40
2023-02-13T18:52:35.070Z,6.40
2023-02-13T18:55:02.057Z,6.40
2023-02-13T18:57:28.744Z,6.40
2023-02-13T18:59:55.437Z,6.50
2023-02-13T19:02:22.406Z,6.50
2023-02-13T19:04:49.142Z,7.70
2023-02-13T19:07:15.978Z,6.50
2023-02-13T19:09:44.418Z,6.50
2023-02-13T19:12:12.009Z,8.30
2023-02-13T19:14:39.987Z,6.50
2023-02-13T19:17:08.517Z,8.60
2023-02-13T19:19:35.505Z,6.50
2023-02-13T19:22:03.376Z,6.60
2023-02-13T19:24:30.327Z,6.50
2023-02-13T19:26:57.153Z,6.60
2023-02-13T19:29:23.891Z,6.60
2023-02-13T19:31:50.664Z,6.60
2023-02-13T19:34:17.421Z,6.60
2023-02-13T19:36:44.397Z,6.60
2023-02-13T19:39:11.811Z,6.60
2023-02-13T19:41:40.575Z,6.60
2023-02-13T19:44:08.744Z,6.60
2023-02-13T19:46:35.902Z,6.60
2023-02-13T19:49:03.399Z,6.60
2023-02-13T19:51:32.358Z,8.00
2023-02-13T19:54:07.240Z,7.60
2023-02-13T19:56:37.456Z,6.70
2023-02-13T19:59:05.256Z,6.70
2023-02-13T20:01:32.088Z,8.60
2023-02-13T20:03:59.336Z,8.70
2023-02-13T20:06:37.508Z,8.40
2023-02-13T20:09:12.185Z,6.70
2023-02-13T20:11:41.484Z,6.70
2023-02-13T20:14:14.351Z,7.60
2023-02-13T20:16:42.908Z,6.70
2023-02-13T20:19:11.712Z,6.70
2023-02-13T20:21:38.845Z,6.70
2023-02-13T20:24:06.406Z,6.70
2023-02-13T20:26:34.562Z,6.70
2023-02-13T20:29:01.318Z,6.70
2023-02-13T20:31:29.946Z,6.80
2023-02-13T20:33:58.147Z,6.80
2023-02-13T20:36:27.704Z,6.90
2023-02-13T20:38:57.090Z,6.60
2023-02-13T20:41:30.440Z,6.80
2023-02-13T20:44:05.719Z,6.80
2023-02-13T20:46:34.428Z,6.80
2023-02-13T20:49:01.168Z,6.80
2023-02-13T20:51:28.136Z,6.80
2023-02-13T20:53:55.934Z,6.80
2023-02-13T20:56:25.111Z,6.80
2023-02-13T20:58:54.771Z,8.10
2023-02-13T21:01:33.640Z,6.80
2023-02-13T21:04:00.601Z,6.70
2023-02-13T21:06:29.722Z,6.70
2023-02-13T21:08:56.599Z,6.70
2023-02-13T21:11:23.798Z,8.70
2023-02-13T21:13:51.337Z,6.70
2023-02-13T21:16:21.146Z,6.70
2023-02-13T21:18:49.964Z,6.80
2023-02-13T21:21:17.580Z,6.80
2023-02-13T21:23:44.248Z,6.80
2023-02-13T21:26:17.195Z,6.80
2023-02-13T21:28:48.819Z,6.70
2023-02-13T21:31:29.273Z,6.70
2023-02-13T21:34:06.554Z,6.80
2023-02-13T21:36:34.805Z,6.80
2023-02-13T21:39:01.930Z,6.80
2023-02-13T21:41:28.682Z,6.80
2023-02-13T21:43:55.483Z,6.80
2023-02-13T21:46:25.411Z,6.70
2023-02-13T21:48:57.611Z,6.80
2023-02-13T21:51:26.332Z,6.80
2023-02-13T21:53:53.814Z,6.80
2023-02-13T21:56:23.087Z,8.10
2023-02-13T21:58:50.360Z,6.80
2023-02-13T22:01:26.109Z,6.90
2023-02-13T22:03:58.417Z,6.90
2023-02-13T22:06:27.249Z,7.00
2023-02-13T22:09:03.341Z,7.00
2023-02-13T22:11:30.783Z,7.30
2023-02-13T22:14:01.641Z,7.50
2023-02-13T22:16:33.355Z,7.00
2023-02-13T22:19:00.869Z,7.00
2023-02-13T22:21:30.246Z,7.00
2023-02-13T22:23:57.663Z,7.10
2023-02-13T22:26:35.967Z,7.10
2023-02-13T22:29:06.373Z,8.40
2023-02-13T22:31:33.583Z,7.00
2023-02-13T22:34:05.339Z,7.00
2023-02-13T22:36:38.951Z,7.00
2023-02-13T22:39:06.852Z,7.00
2023-02-13T22:41:33.737Z,7.00
2023-02-13T22:44:00.436Z,7.00
2023-02-13T22:46:29.789Z,7.10
2023-02-13T22:48:56.865Z,7.30
2023-02-13T22:51:26.821Z,7.10
2023-02-13T22:53:55.203Z,7.20
2023-02-13T22:56:22.513Z,7.20
2023-02-13T22:58:49.363Z,7.20
2023-02-13T23:01:20.283Z,7.20
2023-02-13T23:03:47.423Z,7.20
2023-02-13T23:06:15.509Z,7.20
2023-02-13T23:08:43.144Z,7.20
2023-02-13T23:11:31.770Z,7.20
2023-02-13T23:13:58.453Z,7.20
2023-02-13T23:16:25.605Z,7.10
2023-02-13T23:18:54.612Z,7.10
2023-02-13T23:21:21.563Z,7.00
2023-02-13T23:23:48.596Z,7.10
2023-02-13T23:26:15.768Z,7.80
2023-02-13T23:28:42.537Z,7.00
2023-02-13T23:31:09.440Z,7.00
2023-02-13T23:33:36.187Z,7.00
2023-02-13T23:36:03.296Z,6.90
2023-02-13T23:38:29.982Z,7.90
2023-02-13T23:40:56.761Z,6.90
2023-02-13T23:43:23.976Z,6.90
2023-02-13T23:45:50.625Z,6.90
2023-02-13T23:48:17.255Z,6.90
2023-02-13T23:50:43.955Z,6.80
2023-02-13T23:53:10.624Z,6.80
2023-02-13T23:55:37.381Z,8.20
2023-02-13T23:58:04.048Z,6.80
